createdAt,value
2018-07-17T00:00:13.510Z,8.43
2018-07-17T00:02:42.082Z,7.90
2018-07-17T00:05:10.756Z,8.33
2018-07-17T00:07:39.219Z,8.53
2018-07-17T00:10:08.345Z,9.30
2018-07-17T00:12:37.043Z,8.53
2018-07-17T00:15:05.693Z,8.73
2018-07-17T00:17:34.831Z,9.10
2018-07-17T00:20:03.435Z,9.47
2018-07-17T00:22:31.883Z,9.43
2018-07-17T00:25:01.040Z,8.73
2018-07-17T00:27:29.542Z,10.20
2018-07-17T00:29:58.020Z,10.57
2018-07-17T00:32:26.460Z,11.90
2018-07-17T00:34:54.931Z,10.57
2018-07-17T00:37:23.615Z,12.00
2018-07-17T00:39:52.185Z,11.80
2018-07-17T00:42:20.678Z,13.13
2018-07-17T00:44:49.159Z,12.07
2018-07-17T00:47:17.646Z,13.43
2018-07-17T00:49:46.228Z,14.97
2018-07-17T00:52:14.709Z,13.87
2018-07-17T00:54:43.227Z,14.37
2018-07-17T00:57:11.911Z,13.70
2018-07-17T00:59:40.582Z,13.40
2018-07-17T01:02:14.141Z,14.50
2018-07-17T01:04:47.896Z,14.33
2018-07-17T01:07:21.824Z,13.23
2018-07-17T01:09:55.543Z,14.50
2018-07-17T01:12:23.230Z,13.50
2018-07-17T01:15:09.851Z,14.03
2018-07-17T01:17:38.393Z,12.80
2018-07-17T01:20:07.116Z,13.67
2018-07-17T01:22:35.582Z,12.97
2018-07-17T01:25:04.140Z,14.37
2018-07-17T01:27:32.634Z,14.90
2018-07-17T01:30:01.813Z,15.47
2018-07-17T01:32:30.307Z,15.63
2018-07-17T01:34:58.778Z,15.60
2018-07-17T01:37:27.274Z,14.70
2018-07-17T01:39:55.801Z,14.20
2018-07-17T01:42:24.393Z,13.77
2018-07-17T01:44:52.886Z,15.70
2018-07-17T01:47:21.379Z,13.33
2018-07-17T01:49:49.831Z,14.03
2018-07-17T01:52:18.307Z,17.97
2018-07-17T01:54:46.755Z,16.50
2018-07-17T01:57:15.198Z,17.37
2018-07-17T01:59:43.745Z,16.63
2018-07-17T02:02:12.268Z,16.57
2018-07-17T02:04:40.720Z,17.40
2018-07-17T02:07:09.260Z,17.13
2018-07-17T02:09:37.725Z,16.23
2018-07-17T02:12:06.287Z,17.47
2018-07-17T02:14:34.749Z,18.13
2018-07-17T02:17:03.198Z,19.63
2018-07-17T02:19:31.750Z,20.97
2018-07-17T02:22:00.570Z,20.93
2018-07-17T02:24:29.087Z,23.13
2018-07-17T02:26:57.548Z,25.13
2018-07-17T02:29:26.046Z,23.43
2018-07-17T02:31:54.491Z,25.63
2018-07-17T02:34:23.140Z,27.90
2018-07-17T02:36:51.670Z,28.30
2018-07-17T02:39:20.128Z,27.40
2018-07-17T02:41:49.272Z,26.23
2018-07-17T02:44:17.780Z,27.80
2018-07-17T02:46:46.286Z,28.87
2018-07-17T02:49:14.851Z,27.43
2018-07-17T02:51:43.331Z,26.87
2018-07-17T02:54:11.881Z,28.10
2018-07-17T02:56:40.367Z,28.50
2018-07-17T02:59:08.803Z,24.53
2018-07-17T03:01:37.311Z,29.03
2018-07-17T03:04:06.120Z,27.83
2018-07-17T03:06:41.207Z,30.93
2018-07-17T03:09:09.763Z,31.97
2018-07-17T03:11:38.344Z,29.37
2018-07-17T03:14:06.900Z,28.60
2018-07-17T03:16:35.478Z,28.63
2018-07-17T03:19:03.999Z,28.40
2018-07-17T03:21:32.475Z,27.33
2018-07-17T03:24:00.927Z,33.57
2018-07-17T03:26:29.380Z,33.40
2018-07-17T03:28:58.494Z,29.23
2018-07-17T03:31:26.988Z,31.60
2018-07-17T03:33:55.599Z,31.67
2018-07-17T03:36:24.152Z,36.07
2018-07-17T03:38:52.633Z,31.40
2018-07-17T03:41:21.144Z,34.27
2018-07-17T03:43:49.669Z,34.23
2018-07-17T03:46:18.258Z,35.63
2018-07-17T03:48:46.787Z,34.33
2018-07-17T03:51:15.426Z,35.37
2018-07-17T03:53:43.995Z,37.73
2018-07-17T03:56:12.482Z,36.67
2018-07-17T03:58:40.968Z,36.47
2018-07-17T04:01:09.406Z,37.97
2018-07-17T04:03:37.879Z,36.27
2018-07-17T04:06:06.376Z,37.43
2018-07-17T04:08:34.865Z,34.03
2018-07-17T04:11:03.382Z,38.37
2018-07-17T04:13:31.924Z,36.30
2018-07-17T04:16:00.324Z,36.93
2018-07-17T04:18:28.832Z,36.53
2018-07-17T04:20:57.362Z,37.13
2018-07-17T04:23:25.819Z,37.93
2018-07-17T04:25:54.404Z,36.90
2018-07-17T04:28:23.480Z,36.73
2018-07-17T04:30:52.058Z,37.27
2018-07-17T04:33:20.764Z,35.13
2018-07-17T04:35:49.276Z,34.17
2018-07-17T04:38:17.743Z,37.40
2018-07-17T04:40:46.198Z,37.37
2018-07-17T04:43:14.646Z,38.10
2018-07-17T04:45:43.235Z,36.33
2018-07-17T04:48:11.731Z,35.07
2018-07-17T04:50:40.279Z,37.07
2018-07-17T04:53:08.813Z,41.10
2018-07-17T04:55:37.513Z,47.07
2018-07-17T04:58:06.085Z,45.73
2018-07-17T05:00:34.672Z,49.07
2018-07-17T05:03:03.373Z,50.70
2018-07-17T05:05:31.874Z,49.87
2018-07-17T05:08:00.346Z,49.70
2018-07-17T05:10:29.219Z,45.90
2018-07-17T05:12:57.757Z,48.47
2018-07-17T05:15:26.181Z,49.30
2018-07-17T05:17:54.741Z,50.80
2018-07-17T05:20:23.292Z,50.13
2018-07-17T05:22:51.793Z,51.10
2018-07-17T05:25:20.300Z,51.90
2018-07-17T05:27:48.875Z,50.90
2018-07-17T05:30:17.360Z,49.30
2018-07-17T05:32:45.939Z,48.17
2018-07-17T05:35:14.653Z,49.97
2018-07-17T05:37:43.239Z,50.47
2018-07-17T05:40:11.922Z,45.77
2018-07-17T05:42:40.461Z,46.43
2018-07-17T05:45:09.078Z,45.83
2018-07-17T05:47:40.578Z,43.50
2018-07-17T05:50:10.080Z,40.40
2018-07-17T05:52:38.909Z,36.03
2018-07-17T05:55:11.380Z,34.73
2018-07-17T05:57:39.960Z,33.43
2018-07-17T06:00:08.909Z,34.40
2018-07-17T06:02:37.467Z,31.90
2018-07-17T06:05:06.099Z,31.33
2018-07-17T06:07:34.674Z,29.83
2018-07-17T06:10:03.234Z,29.23
2018-07-17T06:12:31.794Z,22.57
2018-07-17T06:15:00.553Z,20.97
2018-07-17T06:17:29.136Z,22.57
2018-07-17T06:19:57.260Z,18.83
2018-07-17T06:22:25.760Z,16.27
2018-07-17T06:24:54.494Z,14.93
2018-07-17T06:27:22.949Z,13.43
2018-07-17T06:29:51.395Z,12.40
2018-07-17T06:32:19.855Z,11.53
2018-07-17T06:34:48.320Z,9.27
2018-07-17T06:37:17.048Z,8.33
2018-07-17T06:39:45.630Z,6.23
2018-07-17T06:42:14.180Z,6.17
2018-07-17T06:44:42.720Z,6.23
2018-07-17T06:47:11.290Z,7.03
2018-07-17T06:49:39.793Z,6.63
2018-07-17T06:52:08.323Z,6.13
2018-07-17T06:54:36.870Z,6.30
2018-07-17T06:57:05.468Z,6.20
2018-07-17T06:59:34.009Z,5.17
2018-07-17T07:02:02.505Z,5.43
2018-07-17T07:04:31.042Z,5.07
2018-07-17T07:06:59.519Z,4.90
2018-07-17T07:09:28.066Z,5.40
2018-07-17T07:11:56.573Z,6.00
2018-07-17T07:14:25.093Z,5.77
2018-07-17T07:16:53.979Z,5.00
2018-07-17T07:19:22.875Z,5.60
2018-07-17T07:21:53.575Z,5.97
2018-07-17T07:24:22.437Z,5.90
2018-07-17T07:26:51.057Z,5.90
2018-07-17T07:29:19.568Z,6.00
2018-07-17T07:31:48.072Z,6.47
2018-07-17T07:34:16.554Z,6.13
2018-07-17T07:36:45.076Z,7.33
2018-07-17T07:39:13.592Z,6.00
2018-07-17T07:41:42.101Z,6.80
2018-07-17T07:44:10.611Z,6.93
2018-07-17T07:46:39.169Z,6.10
2018-07-17T07:49:07.785Z,6.63
2018-07-17T07:51:36.388Z,7.40
2018-07-17T07:54:04.974Z,7.07
2018-07-17T07:56:33.598Z,7.25
2018-07-17T07:59:03.020Z,7.10
2018-07-17T08:01:31.890Z,8.60
2018-07-17T08:04:00.800Z,6.72
2018-07-17T08:06:29.184Z,7.67
2018-07-17T08:08:57.717Z,7.40
2018-07-17T08:11:26.320Z,6.47
2018-07-17T08:13:54.879Z,6.75
2018-07-17T08:16:23.387Z,7.07
2018-07-17T08:18:51.991Z,6.60
2018-07-17T08:21:20.725Z,7.20
2018-07-17T08:23:49.322Z,7.80
2018-07-17T08:26:17.877Z,8.33
2018-07-17T08:28:46.427Z,8.20
2018-07-17T08:31:14.999Z,9.07
2018-07-17T08:33:43.641Z,9.28
2018-07-17T08:36:12.195Z,11.00
2018-07-17T08:38:40.775Z,9.35
2018-07-17T08:41:09.540Z,12.83
2018-07-17T08:43:38.161Z,13.43
2018-07-17T08:46:06.562Z,13.60
2018-07-17T08:48:35.117Z,11.90
2018-07-17T08:51:03.675Z,14.40
2018-07-17T08:53:32.239Z,12.10
2018-07-17T08:56:00.753Z,13.27
2018-07-17T08:58:29.174Z,13.93
2018-07-17T09:00:57.788Z,12.87
2018-07-17T09:03:26.362Z,12.43
2018-07-17T09:05:54.898Z,13.27
2018-07-17T09:08:23.399Z,12.57
2018-07-17T09:10:51.937Z,13.63
2018-07-17T09:13:20.618Z,11.25
2018-07-17T09:15:49.896Z,11.57
2018-07-17T09:18:27.632Z,10.40
2018-07-17T09:20:56.108Z,9.80
2018-07-17T09:23:24.610Z,10.10
2018-07-17T09:25:53.172Z,10.13
2018-07-17T09:28:21.822Z,9.88
2018-07-17T09:30:55.540Z,9.40
2018-07-17T09:33:24.015Z,8.03
2018-07-17T09:35:52.569Z,7.93
2018-07-17T09:38:21.119Z,9.17
2018-07-17T09:40:49.685Z,8.13
2018-07-17T09:43:18.306Z,8.80
2018-07-17T09:45:53.363Z,7.77
2018-07-17T09:48:21.985Z,8.35
2018-07-17T09:50:50.634Z,7.30
2018-07-17T09:53:19.116Z,8.58
2018-07-17T09:55:47.618Z,8.28
2018-07-17T09:58:16.239Z,8.58
2018-07-17T10:00:50.182Z,8.55
2018-07-17T10:03:18.653Z,7.33
2018-07-17T10:05:47.211Z,8.70
2018-07-17T10:08:15.734Z,7.95
2018-07-17T10:10:44.330Z,7.80
2018-07-17T10:13:12.865Z,7.95
2018-07-17T10:15:41.531Z,8.93
2018-07-17T10:18:10.197Z,8.45
2018-07-17T10:20:46.854Z,8.15
2018-07-17T10:23:15.412Z,8.00
2018-07-17T10:25:45.356Z,9.93
2018-07-17T10:28:14.148Z,9.40
2018-07-17T10:30:42.673Z,9.48
2018-07-17T10:33:11.201Z,8.65
2018-07-17T10:35:39.803Z,9.68
2018-07-17T10:38:08.480Z,9.50
2018-07-17T10:40:37.028Z,10.28
2018-07-17T10:43:05.545Z,10.30
2018-07-17T10:45:40.843Z,9.43
2018-07-17T10:48:09.368Z,9.03
2018-07-17T10:50:37.846Z,9.73
2018-07-17T10:53:06.616Z,9.75
2018-07-17T10:55:36.661Z,10.45
2018-07-17T10:58:05.434Z,10.03
2018-07-17T11:00:34.785Z,11.28
2018-07-17T11:03:03.341Z,11.05
2018-07-17T11:05:31.897Z,11.00
2018-07-17T11:08:00.520Z,10.58
2018-07-17T11:10:29.058Z,10.45
2018-07-17T11:12:57.620Z,11.48
2018-07-17T11:15:26.174Z,9.95
2018-07-17T11:17:54.678Z,10.18
2018-07-17T11:20:23.184Z,9.55
2018-07-17T11:22:51.781Z,8.73
2018-07-17T11:25:20.371Z,9.80
2018-07-17T11:27:48.873Z,11.10
2018-07-17T11:30:48.487Z,9.60
2018-07-17T11:33:24.162Z,9.40
2018-07-17T11:35:53.311Z,10.30
2018-07-17T11:38:21.849Z,9.95
2018-07-17T11:40:54.049Z,9.75
2018-07-17T11:43:22.780Z,7.95
2018-07-17T11:45:51.272Z,8.88
2018-07-17T11:48:19.769Z,8.93
2018-07-17T11:50:48.285Z,9.43
2018-07-17T11:53:16.922Z,8.73
2018-07-17T11:55:46.106Z,8.60
2018-07-17T11:58:14.678Z,7.67
2018-07-17T12:00:43.191Z,6.62
2018-07-17T12:03:11.714Z,7.95
2018-07-17T12:05:40.279Z,7.55
2018-07-17T12:08:08.971Z,7.62
2018-07-17T12:10:37.552Z,7.70
2018-07-17T12:13:06.543Z,8.15
2018-07-17T12:15:35.248Z,7.40
2018-07-17T12:18:03.835Z,7.72
2018-07-17T12:20:32.598Z,8.20
2018-07-17T12:23:01.042Z,8.35
2018-07-17T12:25:29.612Z,9.35
2018-07-17T12:27:58.545Z,7.67
2018-07-17T12:30:27.220Z,8.53
2018-07-17T12:32:55.860Z,9.08
2018-07-17T12:35:24.376Z,8.85
2018-07-17T12:37:54.078Z,8.43
2018-07-17T12:40:22.873Z,8.38
2018-07-17T12:42:51.356Z,10.95
2018-07-17T12:45:19.872Z,9.90
2018-07-17T12:47:48.125Z,11.22
2018-07-17T12:50:16.611Z,9.08
2018-07-17T12:52:45.292Z,10.53
2018-07-17T12:55:13.824Z,11.20
2018-07-17T12:57:42.928Z,10.10
2018-07-17T13:03:02.333Z,9.58
2018-07-17T13:05:31.369Z,10.98
2018-07-17T13:08:00.165Z,10.78
2018-07-17T13:10:28.871Z,12.60
2018-07-17T13:12:57.538Z,12.73
2018-07-17T13:15:26.200Z,12.23
2018-07-17T13:17:54.795Z,11.93
2018-07-17T13:20:23.447Z,11.83
2018-07-17T13:22:51.971Z,10.35
2018-07-17T13:25:20.539Z,13.32
2018-07-17T13:27:49.049Z,11.10
2018-07-17T13:30:17.614Z,10.25
2018-07-17T13:32:46.197Z,10.15
2018-07-17T13:35:14.822Z,11.38
2018-07-17T13:37:43.334Z,9.13
2018-07-17T13:40:11.536Z,13.90
2018-07-17T13:42:40.167Z,11.12
2018-07-17T13:45:08.686Z,12.37
2018-07-17T13:47:37.309Z,11.43
2018-07-17T13:50:05.994Z,12.68
2018-07-17T13:52:34.612Z,10.28
2018-07-17T13:55:03.149Z,14.70
2018-07-17T13:57:31.794Z,13.60
2018-07-17T14:00:00.394Z,11.78
2018-07-17T14:02:29.034Z,13.80
2018-07-17T14:04:57.547Z,11.90
2018-07-17T14:07:26.107Z,10.50
2018-07-17T14:09:54.789Z,10.32
2018-07-17T14:12:23.502Z,10.60
2018-07-17T14:14:52.099Z,10.10
2018-07-17T14:17:20.869Z,10.63
2018-07-17T14:19:49.469Z,11.00
2018-07-17T14:22:18.103Z,10.63
2018-07-17T14:24:46.763Z,12.00
2018-07-17T14:27:15.285Z,10.28
2018-07-17T14:29:44.040Z,9.25
2018-07-17T14:32:12.884Z,9.68
2018-07-17T14:34:41.504Z,10.90
2018-07-17T14:37:10.084Z,10.80
2018-07-17T14:39:38.669Z,9.73
2018-07-17T14:42:07.327Z,8.78
2018-07-17T14:44:35.895Z,8.90
2018-07-17T14:47:04.460Z,8.03
2018-07-17T14:49:33.604Z,9.48
2018-07-17T14:52:02.933Z,10.58
2018-07-17T14:54:31.452Z,10.00
2018-07-17T14:56:59.960Z,10.10
2018-07-17T14:59:28.509Z,12.28
2018-07-17T15:01:57.175Z,13.03
2018-07-17T15:04:25.761Z,13.10
2018-07-17T15:06:54.355Z,12.60
2018-07-17T15:09:23.006Z,13.53
2018-07-17T15:11:51.806Z,12.98
2018-07-17T15:14:21.388Z,12.00
2018-07-17T15:16:50.535Z,12.33
2018-07-17T15:19:19.240Z,13.53
2018-07-17T15:21:48.002Z,12.13
2018-07-17T15:24:16.568Z,13.88
2018-07-17T15:26:45.887Z,13.35
2018-07-17T15:29:14.441Z,13.13
2018-07-17T15:31:43.068Z,13.25
2018-07-17T15:34:11.733Z,14.95
2018-07-17T15:36:40.925Z,12.73
2018-07-17T15:39:11.021Z,12.17
2018-07-17T15:41:40.037Z,12.47
2018-07-17T15:44:08.722Z,10.13
2018-07-17T15:46:37.854Z,9.88
2018-07-17T15:49:06.412Z,9.50
2018-07-17T15:51:35.050Z,9.70
2018-07-17T15:54:03.691Z,10.43
2018-07-17T15:56:32.235Z,10.72
2018-07-17T15:59:01.419Z,10.60
2018-07-17T16:01:29.965Z,10.20
2018-07-17T16:03:58.528Z,10.50
2018-07-17T16:06:37.178Z,9.57
2018-07-17T16:09:07.251Z,7.58
2018-07-17T16:11:35.857Z,8.03
2018-07-17T16:14:04.779Z,8.00
2018-07-17T16:16:33.339Z,6.50
2018-07-17T16:19:01.890Z,5.50
2018-07-17T16:21:31.431Z,6.20
2018-07-17T16:23:59.932Z,6.17
2018-07-17T16:26:28.631Z,6.03
2018-07-17T16:28:57.218Z,6.58
2018-07-17T16:31:26.261Z,6.03
2018-07-17T16:33:55.335Z,5.37
2018-07-17T16:36:23.872Z,4.65
2018-07-17T16:38:52.779Z,6.33
2018-07-17T16:41:21.551Z,4.80
2018-07-17T16:43:50.383Z,4.90
2018-07-17T16:46:18.862Z,4.20
2018-07-17T16:48:47.378Z,6.28
2018-07-17T16:51:15.948Z,7.20
2018-07-17T16:53:45.270Z,5.15
2018-07-17T16:56:14.700Z,4.85
2018-07-17T16:58:43.392Z,4.10
2018-07-17T17:01:12.016Z,3.83
2018-07-17T17:03:44.242Z,4.87
2018-07-17T17:06:12.844Z,4.83
2018-07-17T17:08:41.501Z,4.83
2018-07-17T17:11:09.711Z,4.87
2018-07-17T17:13:38.375Z,4.20
2018-07-17T17:16:06.886Z,4.20
2018-07-17T17:18:35.442Z,4.70
2018-07-17T17:21:04.206Z,4.47
2018-07-17T17:23:32.904Z,4.83
2018-07-17T17:26:02.166Z,4.00
2018-07-17T17:28:31.508Z,4.47
2018-07-17T17:31:00.045Z,3.80
2018-07-17T17:33:28.575Z,5.00
2018-07-17T17:35:57.181Z,4.17
2018-07-17T17:38:25.669Z,4.05
2018-07-17T17:40:54.346Z,4.47
2018-07-17T17:43:22.928Z,4.37
2018-07-17T17:45:51.594Z,5.07
2018-07-17T17:48:20.293Z,4.47
2018-07-17T17:50:48.863Z,4.00
2018-07-17T17:53:17.381Z,4.13
2018-07-17T17:55:45.910Z,3.90
2018-07-17T17:58:14.520Z,4.22
2018-07-17T18:00:43.094Z,4.70
2018-07-17T18:03:11.682Z,4.67
2018-07-17T18:05:40.456Z,5.03
2018-07-17T18:08:08.985Z,4.77
2018-07-17T18:10:37.664Z,4.27
2018-07-17T18:13:06.430Z,4.12
2018-07-17T18:15:34.931Z,4.60
2018-07-17T18:18:03.428Z,3.57
2018-07-17T18:20:31.929Z,4.23
2018-07-17T18:23:00.514Z,3.33
2018-07-17T18:25:29.038Z,3.77
2018-07-17T18:27:57.651Z,4.07
2018-07-17T18:30:26.191Z,3.83
2018-07-17T18:32:54.671Z,3.73
2018-07-17T18:35:23.259Z,4.13
2018-07-17T18:37:51.766Z,3.87
2018-07-17T18:40:20.414Z,3.93
2018-07-17T18:42:48.875Z,4.50
2018-07-17T18:45:17.414Z,4.57
2018-07-17T18:47:45.906Z,4.00
2018-07-17T18:50:14.411Z,4.33
2018-07-17T18:52:58.333Z,4.07
2018-07-17T18:55:26.866Z,3.87
2018-07-17T18:57:55.370Z,3.77
2018-07-17T19:00:23.825Z,3.37
2018-07-17T19:02:52.406Z,3.17
2018-07-17T19:05:20.890Z,3.10
2018-07-17T19:07:49.469Z,3.00
2018-07-17T19:10:18.413Z,2.70
2018-07-17T19:12:49.983Z,3.37
2018-07-17T19:15:18.461Z,3.47
2018-07-17T19:17:47.049Z,3.43
2018-07-17T19:20:15.501Z,3.43
2018-07-17T19:22:44.005Z,2.97
2018-07-17T19:25:13.061Z,3.10
2018-07-17T19:27:41.574Z,3.43
2018-07-17T19:30:10.360Z,3.40
2018-07-17T19:32:38.835Z,3.10
2018-07-17T19:35:14.029Z,3.80
2018-07-17T19:37:42.536Z,3.70
2018-07-17T19:40:11.100Z,3.80
2018-07-17T19:42:40.330Z,3.80
2018-07-17T19:45:08.957Z,3.50
2018-07-17T19:47:37.543Z,3.67
2018-07-17T19:50:06.938Z,3.70
2018-07-17T19:52:35.834Z,3.60
2018-07-17T19:55:04.646Z,3.90
2018-07-17T19:57:33.349Z,8.17
2018-07-17T20:00:02.044Z,3.93
2018-07-17T20:02:30.542Z,3.90
2018-07-17T20:04:59.654Z,4.13
2018-07-17T20:07:28.073Z,3.87
2018-07-17T20:09:56.607Z,3.97
2018-07-17T20:12:25.178Z,4.27
2018-07-17T20:14:53.686Z,4.37
2018-07-17T20:17:22.124Z,4.10
2018-07-17T20:19:50.628Z,3.90
2018-07-17T20:22:19.268Z,3.90
2018-07-17T20:24:47.811Z,3.90
2018-07-17T20:27:15.995Z,3.70
2018-07-17T20:29:44.645Z,4.40
2018-07-17T20:32:13.634Z,4.37
2018-07-17T20:34:43.429Z,3.77
2018-07-17T20:37:14.082Z,4.57
2018-07-17T20:39:42.737Z,4.07
2018-07-17T20:42:11.163Z,3.77
2018-07-17T20:44:39.651Z,4.00
2018-07-17T20:47:08.143Z,4.00
2018-07-17T20:49:36.570Z,3.90
2018-07-17T20:52:05.081Z,4.00
2018-07-17T20:54:33.628Z,4.07
2018-07-17T20:57:02.046Z,3.10
2018-07-17T20:59:30.569Z,2.90
2018-07-17T21:01:59.059Z,3.37
2018-07-17T21:04:27.578Z,3.17
2018-07-17T21:06:56.152Z,3.20
2018-07-17T21:09:25.673Z,3.53
2018-07-17T21:11:53.872Z,2.43
2018-07-17T21:14:23.514Z,2.20
2018-07-17T21:16:51.982Z,2.77
2018-07-17T21:19:20.431Z,2.40
2018-07-17T21:21:48.879Z,2.90
2018-07-17T21:24:17.331Z,2.40
2018-07-17T21:26:45.884Z,2.20
2018-07-17T21:29:14.335Z,2.17
2018-07-17T21:31:42.842Z,2.33
2018-07-17T21:34:11.296Z,2.53
2018-07-17T21:36:42.838Z,2.60
2018-07-17T21:39:12.096Z,2.40
2018-07-17T21:41:40.615Z,2.90
2018-07-17T21:44:09.037Z,2.60
2018-07-17T21:46:37.581Z,2.90
2018-07-17T21:49:06.098Z,2.83
2018-07-17T21:51:34.597Z,2.77
2018-07-17T21:54:03.195Z,2.53
2018-07-17T21:56:31.798Z,2.43
2018-07-17T21:59:00.360Z,2.37
2018-07-17T22:01:28.815Z,2.40
2018-07-17T22:03:57.369Z,2.63
2018-07-17T22:06:28.136Z,2.93
2018-07-17T22:08:56.563Z,2.87
2018-07-17T22:11:25.002Z,2.80
2018-07-17T22:13:53.437Z,3.30
2018-07-17T22:16:21.955Z,3.10
2018-07-17T22:18:50.417Z,3.70
2018-07-17T22:21:18.856Z,3.10
2018-07-17T22:23:47.345Z,3.90
2018-07-17T22:26:15.759Z,3.60
2018-07-17T22:28:44.260Z,3.70
2018-07-17T22:31:12.728Z,3.80
2018-07-17T22:33:41.207Z,3.23
2018-07-17T22:36:10.332Z,3.30
2018-07-17T22:38:38.849Z,3.33
2018-07-17T22:41:07.503Z,3.43
2018-07-17T22:43:35.978Z,3.43
2018-07-17T22:46:04.475Z,3.77
2018-07-17T22:48:33.061Z,3.77
2018-07-17T22:51:01.494Z,3.90
2018-07-17T22:53:29.923Z,4.03
2018-07-17T22:55:59.994Z,4.00
2018-07-17T22:58:32.488Z,3.97
2018-07-17T23:01:02.649Z,3.03
2018-07-17T23:03:31.055Z,3.77
2018-07-17T23:05:59.610Z,4.30
2018-07-17T23:08:28.068Z,4.20
2018-07-17T23:10:59.390Z,4.30
2018-07-17T23:13:28.678Z,4.57
2018-07-17T23:15:57.164Z,4.43
2018-07-17T23:18:25.750Z,4.43
2018-07-17T23:20:54.090Z,4.57
2018-07-17T23:23:22.573Z,4.67
2018-07-17T23:25:51.223Z,4.17
2018-07-17T23:28:20.389Z,4.10
2018-07-17T23:30:48.793Z,4.13
2018-07-17T23:33:18.565Z,3.90
2018-07-17T23:35:47.092Z,3.93
2018-07-17T23:38:15.606Z,4.70
2018-07-17T23:40:44.829Z,4.57
2018-07-17T23:43:13.904Z,4.60
2018-07-17T23:45:42.360Z,4.33
2018-07-17T23:48:10.845Z,5.27
2018-07-17T23:50:39.565Z,6.20
2018-07-17T23:53:08.099Z,6.13
2018-07-17T23:55:36.575Z,6.60
2018-07-17T23:58:05.301Z,6.70
